메인 페이지
METAR-TAF:

METAR-TAF

공항 :

가티노, 퀘벡, 캐나다

위도: 45-31N, 경도: 075-34W, 고도: 64m

현재 날씨관측

예보는 36분 전, 00:00시(UTC)에 발표되었습니다.
서북서4kt
온도 -1°C
습도 69%
기압 1012 hPa
시정: 24.1km
고도 4200ft 상공 구름 많음
고도 9200ft 상공 구름 많음

METAR: CYND 040000Z 30004KT 15SM BKN042 BKN092 M01/M06 A2987 RMK SC7AC1 AC TR SLP120

시각: 19:36 (00:36 UTC)

예보

예보는 57분 전, 23:39시(UTC)에 발표되었습니다.
예보 대상 시간: 04일 00시부터 04일 02시까지 (UTC)
6kt
시정: 10km
고도 4000ft 상공 흐림

TAF: CYND 032339Z 0400/0402 27006KT P6SM OVC040 RMK NXT FCST WILL BE ISSUED AT 041345Z

4,000개 이상의 공항 관측 자료 및 예보 (METAR 및 TAF 보고).

지도상에서 검색 가능한 기상관측소가 노란 점과 빨간 점으로 표시되어 있습니다.

기상관측소 명을 보려면 표시 위로 마우스를 이동하세요.

날씨 관측과 예보를 보려면 클릭하세요.

지도 변경 : 확대하려면 엑스 표시가 있는 녹색 버튼, 축소하려면 빼기 표시가 있는 녹색 버튼, 다음 페이지의 지도를 보려면 녹색 화살표를 클릭하세요.


METAR-TAF: